PAA28Y KJFK-TXKF
Flight info
| Callsign | PAA28Y |
|---|---|
| Flight time | N/A |
| Altitude | 33000 |
| Route | SHIPP Y487 KINGG/M080F330 DCT KINER L461 BOVIC MOMOM1 |
| Aircraft | B722/M-SDFGHRWY/C |
Departure
| Time | N/A |
|---|---|
| Airport | John F. Kennedy International Airport (KJFK) |
Arrival
| Time | 2026-04-15 16:33 |
|---|---|
| Airport | L.F. Wade International Airport (TXKF) |
| Time | Latitude | Longitude | Altitude | Speed | Heading |
|---|---|---|---|---|---|
| 2026-04-15 15:08 | 40.15182 | -72.89152 | 25124 ft | 429 kts | 124° |
| 2026-04-15 15:08 | 40.13527 | -72.85880 | 25500 ft | 432 kts | 124° |
| 2026-04-15 15:08 | 40.11864 | -72.82599 | 25852 ft | 435 kts | 124° |
| 2026-04-15 15:09 | 40.10204 | -72.79278 | 26207 ft | 438 kts | 123° |
| 2026-04-15 15:09 | 40.08605 | -72.75869 | 26552 ft | 441 kts | 120° |
| 2026-04-15 15:09 | 40.07093 | -72.72371 | 26885 ft | 444 kts | 119° |
| 2026-04-15 15:09 | 40.05557 | -72.68867 | 27229 ft | 446 kts | 121° |
| 2026-04-15 15:10 | 40.03945 | -72.65386 | 27558 ft | 449 kts | 121° |
| 2026-04-15 15:10 | 40.02323 | -72.61887 | 27882 ft | 452 kts | 120° |
| 2026-04-15 15:10 | 40.00726 | -72.58337 | 28194 ft | 454 kts | 119° |
| 2026-04-15 15:10 | 39.99129 | -72.54779 | 28464 ft | 457 kts | 119° |
| 2026-04-15 15:11 | 39.97501 | -72.51212 | 28732 ft | 459 kts | 120° |
| 2026-04-15 15:11 | 39.95864 | -72.47611 | 29044 ft | 461 kts | 119° |
| 2026-04-15 15:11 | 39.94297 | -72.44012 | 29354 ft | 464 kts | 117° |
| 2026-04-15 15:11 | 39.92716 | -72.40326 | 29649 ft | 466 kts | 118° |
| 2026-04-15 15:12 | 39.91097 | -72.36651 | 29933 ft | 469 kts | 118° |
| 2026-04-15 15:12 | 39.89450 | -72.32970 | 30200 ft | 471 kts | 118° |
| 2026-04-15 15:12 | 39.87811 | -72.29259 | 30451 ft | 473 kts | 118° |
| 2026-04-15 15:12 | 39.86180 | -72.25532 | 30714 ft | 475 kts | 118° |
| 2026-04-15 15:13 | 39.84527 | -72.21817 | 31084 ft | 472 kts | 122° |
| 2026-04-15 15:13 | 39.82408 | -72.18532 | 31237 ft | 476 kts | 138° |
| 2026-04-15 15:13 | 39.79839 | -72.15887 | 31466 ft | 477 kts | 146° |
| 2026-04-15 15:13 | 39.77086 | -72.13467 | 31693 ft | 479 kts | 147° |
| 2026-04-15 15:14 | 39.74326 | -72.11026 | 31906 ft | 481 kts | 144° |
| 2026-04-15 15:14 | 39.71722 | -72.08287 | 32093 ft | 483 kts | 138° |
| 2026-04-15 15:14 | 39.69250 | -72.05301 | 32283 ft | 486 kts | 136° |
| 2026-04-15 15:14 | 39.66805 | -72.02256 | 32501 ft | 487 kts | 137° |
| 2026-04-15 15:15 | 39.64231 | -71.99369 | 32702 ft | 489 kts | 141° |
| 2026-04-15 15:15 | 39.61570 | -71.96596 | 32896 ft | 491 kts | 141° |
| 2026-04-15 15:15 | 39.58954 | -71.93711 | 33076 ft | 494 kts | 138° |
| 2026-04-15 15:15 | 39.56383 | -71.90713 | 33089 ft | 500 kts | 138° |
| 2026-04-15 15:16 | 39.51075 | -71.84818 | 33092 ft | 510 kts | 140° |
| 2026-04-15 15:16 | 39.45647 | -71.78790 | 33084 ft | 517 kts | 139° |
| 2026-04-15 15:17 | 39.40163 | -71.72681 | 33087 ft | 524 kts | 140° |
| 2026-04-15 15:17 | 39.34580 | -71.66520 | 33090 ft | 530 kts | 139° |
| 2026-04-15 15:18 | 39.28941 | -71.60265 | 33089 ft | 536 kts | 140° |
| 2026-04-15 15:18 | 39.23311 | -71.54074 | 33093 ft | 524 kts | 140° |
| 2026-04-15 15:19 | 39.17812 | -71.48011 | 33080 ft | 515 kts | 141° |
| 2026-04-15 15:19 | 39.12379 | -71.42052 | 33080 ft | 509 kts | 140° |
| 2026-04-15 15:20 | 39.07042 | -71.36198 | 33081 ft | 504 kts | 141° |
| 2026-04-15 15:20 | 39.01720 | -71.30383 | 33081 ft | 500 kts | 140° |
| 2026-04-15 15:21 | 38.96434 | -71.24611 | 33081 ft | 497 kts | 141° |
| 2026-04-15 15:21 | 38.91176 | -71.18886 | 33088 ft | 493 kts | 141° |
| 2026-04-15 15:22 | 38.85947 | -71.13202 | 33080 ft | 491 kts | 141° |
| 2026-04-15 15:22 | 38.80740 | -71.07553 | 33088 ft | 489 kts | 141° |
| 2026-04-15 15:23 | 38.75554 | -71.01939 | 33088 ft | 487 kts | 141° |
| 2026-04-15 15:23 | 38.70414 | -70.96385 | 33087 ft | 485 kts | 141° |
| 2026-04-15 15:24 | 38.65269 | -70.90836 | 33094 ft | 482 kts | 141° |
| 2026-04-15 15:24 | 38.60142 | -70.85325 | 33103 ft | 478 kts | 141° |
| 2026-04-15 15:25 | 38.55066 | -70.79869 | 33099 ft | 476 kts | 141° |
| 2026-04-15 15:25 | 38.50008 | -70.74438 | 33093 ft | 474 kts | 142° |
| 2026-04-15 15:26 | 38.44960 | -70.69042 | 33095 ft | 472 kts | 141° |
| 2026-04-15 15:26 | 38.39959 | -70.63697 | 33096 ft | 471 kts | 142° |
| 2026-04-15 15:27 | 38.34937 | -70.58343 | 33099 ft | 470 kts | 141° |
| 2026-04-15 15:27 | 38.29917 | -70.53000 | 33112 ft | 468 kts | 142° |
| 2026-04-15 15:28 | 38.24940 | -70.47712 | 33116 ft | 465 kts | 141° |
| 2026-04-15 15:28 | 38.19924 | -70.42402 | 33114 ft | 473 kts | 142° |
| 2026-04-15 15:29 | 38.14839 | -70.37011 | 33122 ft | 479 kts | 141° |
| 2026-04-15 15:29 | 38.10045 | -70.31024 | 33109 ft | 487 kts | 132° |
| 2026-04-15 15:30 | 38.05580 | -70.24492 | 33128 ft | 491 kts | 134° |
| 2026-04-15 15:30 | 38.00824 | -70.18295 | 33132 ft | 493 kts | 134° |
| 2026-04-15 15:31 | 37.96222 | -70.11859 | 33122 ft | 492 kts | 134° |
| 2026-04-15 15:31 | 37.91514 | -70.05575 | 33129 ft | 491 kts | 134° |
| 2026-04-15 15:32 | 37.86868 | -69.99228 | 33122 ft | 490 kts | 134° |
| 2026-04-15 15:32 | 37.82199 | -69.92943 | 33126 ft | 489 kts | 134° |
| 2026-04-15 15:33 | 37.77571 | -69.86689 | 33123 ft | 489 kts | 134° |
| 2026-04-15 15:33 | 37.72931 | -69.80445 | 33134 ft | 486 kts | 134° |
| 2026-04-15 15:34 | 37.68287 | -69.74209 | 33133 ft | 487 kts | 134° |
| 2026-04-15 15:34 | 37.63641 | -69.67971 | 33138 ft | 488 kts | 134° |
| 2026-04-15 15:35 | 37.58989 | -69.61744 | 33152 ft | 488 kts | 134° |
| 2026-04-15 15:35 | 37.54327 | -69.55519 | 33159 ft | 487 kts | 134° |
| 2026-04-15 15:36 | 37.49694 | -69.49368 | 33158 ft | 486 kts | 134° |
| 2026-04-15 15:36 | 37.45052 | -69.43152 | 33163 ft | 485 kts | 134° |
| 2026-04-15 15:37 | 37.40402 | -69.36991 | 33153 ft | 486 kts | 134° |
| 2026-04-15 15:37 | 37.35736 | -69.30811 | 33157 ft | 488 kts | 134° |
| 2026-04-15 15:38 | 37.31088 | -69.24658 | 33176 ft | 489 kts | 134° |
| 2026-04-15 15:38 | 37.26394 | -69.18465 | 33187 ft | 489 kts | 134° |
| 2026-04-15 15:39 | 37.21699 | -69.12283 | 33174 ft | 490 kts | 134° |
| 2026-04-15 15:39 | 37.17794 | -69.07129 | 33174 ft | 491 kts | 135° |
| 2026-04-15 15:40 | 37.13074 | -69.00947 | 33177 ft | 491 kts | 134° |
| 2026-04-15 15:40 | 37.08349 | -68.94743 | 33184 ft | 492 kts | 135° |
| 2026-04-15 15:41 | 37.03610 | -68.88551 | 33187 ft | 493 kts | 135° |
| 2026-04-15 15:41 | 36.98865 | -68.82352 | 33198 ft | 493 kts | 134° |
| 2026-04-15 15:42 | 36.94109 | -68.76158 | 33204 ft | 493 kts | 135° |
| 2026-04-15 15:42 | 36.89357 | -68.69976 | 33194 ft | 493 kts | 135° |
| 2026-04-15 15:43 | 36.84627 | -68.63837 | 33196 ft | 493 kts | 135° |
| 2026-04-15 15:43 | 36.79862 | -68.57662 | 33196 ft | 494 kts | 135° |
| 2026-04-15 15:44 | 36.75089 | -68.51492 | 33201 ft | 494 kts | 135° |
| 2026-04-15 15:44 | 36.70319 | -68.45335 | 33210 ft | 494 kts | 135° |
| 2026-04-15 15:45 | 36.65545 | -68.39186 | 33207 ft | 494 kts | 135° |
| 2026-04-15 15:45 | 36.60762 | -68.33035 | 33209 ft | 494 kts | 135° |
| 2026-04-15 15:46 | 36.55870 | -68.27037 | 33210 ft | 493 kts | 140° |
| 2026-04-15 15:46 | 36.50451 | -68.21938 | 33222 ft | 492 kts | 146° |
| 2026-04-15 15:47 | 36.45054 | -68.16681 | 33226 ft | 493 kts | 141° |
| 2026-04-15 15:47 | 36.39690 | -68.11400 | 33231 ft | 492 kts | 144° |
| 2026-04-15 15:48 | 36.34269 | -68.06190 | 33228 ft | 492 kts | 142° |
| 2026-04-15 15:48 | 36.28930 | -68.00948 | 33235 ft | 492 kts | 143° |
| 2026-04-15 15:49 | 36.23509 | -67.95741 | 33237 ft | 493 kts | 143° |
| 2026-04-15 15:49 | 36.18112 | -67.90485 | 33232 ft | 493 kts | 143° |
| 2026-04-15 15:50 | 36.12689 | -67.85272 | 33241 ft | 493 kts | 143° |
| 2026-04-15 15:50 | 36.07288 | -67.80049 | 33242 ft | 493 kts | 143° |
| 2026-04-15 15:51 | 36.01896 | -67.74872 | 33237 ft | 493 kts | 143° |
| 2026-04-15 15:51 | 35.96477 | -67.69659 | 33235 ft | 493 kts | 143° |
| 2026-04-15 15:52 | 35.91044 | -67.64454 | 33242 ft | 494 kts | 143° |
| 2026-04-15 15:52 | 35.85617 | -67.59257 | 33242 ft | 494 kts | 143° |
| 2026-04-15 15:53 | 35.80216 | -67.54098 | 33249 ft | 494 kts | 143° |
| 2026-04-15 15:53 | 35.74777 | -67.48911 | 33235 ft | 494 kts | 143° |
| 2026-04-15 15:54 | 35.69329 | -67.43724 | 33239 ft | 494 kts | 143° |
| 2026-04-15 15:54 | 35.63911 | -67.38575 | 33239 ft | 495 kts | 143° |
| 2026-04-15 15:55 | 35.58459 | -67.33402 | 33246 ft | 495 kts | 143° |
| 2026-04-15 15:55 | 35.53006 | -67.28239 | 33248 ft | 495 kts | 143° |
| 2026-04-15 15:56 | 35.47553 | -67.23083 | 33259 ft | 495 kts | 143° |
| 2026-04-15 15:56 | 35.42092 | -67.17931 | 33261 ft | 495 kts | 143° |
| 2026-04-15 15:57 | 35.36628 | -67.12783 | 33265 ft | 495 kts | 143° |
| 2026-04-15 15:57 | 35.31164 | -67.07645 | 33264 ft | 495 kts | 143° |
| 2026-04-15 15:58 | 35.25696 | -67.02512 | 33270 ft | 495 kts | 143° |
| 2026-04-15 15:58 | 35.20226 | -66.97385 | 33257 ft | 495 kts | 143° |
| 2026-04-15 15:59 | 35.14749 | -66.92263 | 33257 ft | 495 kts | 143° |
| 2026-04-15 15:59 | 35.09275 | -66.87150 | 33267 ft | 495 kts | 143° |
| 2026-04-15 16:00 | 35.03793 | -66.82040 | 33267 ft | 495 kts | 143° |
| 2026-04-15 16:00 | 34.98349 | -66.76973 | 33268 ft | 496 kts | 143° |
| 2026-04-15 16:01 | 34.92866 | -66.71880 | 33271 ft | 496 kts | 143° |
| 2026-04-15 16:01 | 34.87374 | -66.66799 | 33267 ft | 495 kts | 144° |
| 2026-04-15 16:02 | 34.81656 | -66.62143 | 33273 ft | 494 kts | 149° |
| 2026-04-15 16:02 | 34.75878 | -66.57584 | 33275 ft | 495 kts | 146° |
| 2026-04-15 16:03 | 34.70158 | -66.52914 | 33281 ft | 494 kts | 148° |
| 2026-04-15 16:03 | 34.64388 | -66.48366 | 33284 ft | 494 kts | 147° |
| 2026-04-15 16:04 | 34.58699 | -66.43763 | 33278 ft | 494 kts | 148° |
| 2026-04-15 16:04 | 34.52936 | -66.39207 | 33277 ft | 494 kts | 147° |
| 2026-04-15 16:05 | 34.47197 | -66.34606 | 33280 ft | 494 kts | 147° |
| 2026-04-15 16:05 | 34.41432 | -66.30042 | 33281 ft | 495 kts | 147° |
| 2026-04-15 16:06 | 34.35683 | -66.25465 | 33281 ft | 495 kts | 147° |
| 2026-04-15 16:06 | 34.29928 | -66.20912 | 33280 ft | 494 kts | 147° |
| 2026-04-15 16:07 | 34.24170 | -66.16350 | 33280 ft | 494 kts | 147° |
| 2026-04-15 16:08 | 34.15574 | -66.09564 | 33280 ft | 494 kts | 147° |
| 2026-04-15 16:08 | 34.09817 | -66.05030 | 33256 ft | 491 kts | 147° |
| 2026-04-15 16:08 | 34.06961 | -66.02783 | 32625 ft | 488 kts | 147° |
| 2026-04-15 16:09 | 34.04132 | -66.00556 | 32033 ft | 484 kts | 147° |
| 2026-04-15 16:09 | 34.01322 | -65.98348 | 31464 ft | 480 kts | 147° |
| 2026-04-15 16:09 | 33.98535 | -65.96161 | 30911 ft | 476 kts | 147° |
| 2026-04-15 16:09 | 33.95769 | -65.93992 | 30370 ft | 473 kts | 147° |
| 2026-04-15 16:10 | 33.93053 | -65.91862 | 29753 ft | 469 kts | 147° |
| 2026-04-15 16:10 | 33.90288 | -65.89696 | 29128 ft | 467 kts | 148° |
| 2026-04-15 16:10 | 33.87608 | -65.87599 | 28534 ft | 464 kts | 148° |
| 2026-04-15 16:10 | 33.84903 | -65.85484 | 27947 ft | 462 kts | 148° |
| 2026-04-15 16:11 | 33.82216 | -65.83385 | 27373 ft | 459 kts | 148° |
| 2026-04-15 16:11 | 33.79550 | -65.81302 | 26809 ft | 456 kts | 148° |
| 2026-04-15 16:11 | 33.76895 | -65.79231 | 26258 ft | 453 kts | 148° |
| 2026-04-15 16:11 | 33.74256 | -65.77174 | 25734 ft | 450 kts | 148° |
| 2026-04-15 16:12 | 33.71639 | -65.75135 | 25219 ft | 446 kts | 148° |
| 2026-04-15 16:12 | 33.69042 | -65.73113 | 24715 ft | 443 kts | 148° |
| 2026-04-15 16:12 | 33.66464 | -65.71108 | 24219 ft | 440 kts | 148° |
| 2026-04-15 16:12 | 33.63906 | -65.69118 | 23704 ft | 436 kts | 148° |
| 2026-04-15 16:13 | 33.61368 | -65.67148 | 23123 ft | 433 kts | 148° |
| 2026-04-15 16:13 | 33.58844 | -65.65189 | 22553 ft | 430 kts | 148° |
| 2026-04-15 16:13 | 33.56340 | -65.63245 | 21993 ft | 427 kts | 148° |
| 2026-04-15 16:13 | 33.53892 | -65.61348 | 21451 ft | 423 kts | 148° |
| 2026-04-15 16:14 | 33.51393 | -65.59413 | 20912 ft | 420 kts | 149° |
| 2026-04-15 16:14 | 33.48976 | -65.57542 | 20386 ft | 417 kts | 149° |
| 2026-04-15 16:14 | 33.46548 | -65.55663 | 19867 ft | 414 kts | 149° |
| 2026-04-15 16:14 | 33.44131 | -65.53795 | 19357 ft | 412 kts | 149° |
| 2026-04-15 16:15 | 33.41731 | -65.51941 | 18855 ft | 409 kts | 149° |
| 2026-04-15 16:15 | 33.39350 | -65.50102 | 18321 ft | 406 kts | 149° |
| 2026-04-15 16:15 | 33.36982 | -65.48276 | 17751 ft | 403 kts | 149° |
| 2026-04-15 16:15 | 33.34631 | -65.46464 | 17200 ft | 399 kts | 148° |
| 2026-04-15 16:16 | 33.32312 | -65.44675 | 16649 ft | 394 kts | 148° |
| 2026-04-15 16:16 | 33.30016 | -65.42907 | 16114 ft | 389 kts | 148° |
| 2026-04-15 16:16 | 33.27751 | -65.41165 | 15575 ft | 383 kts | 148° |
| 2026-04-15 16:16 | 33.25556 | -65.39476 | 15057 ft | 377 kts | 148° |
| 2026-04-15 16:17 | 33.23366 | -65.37793 | 14545 ft | 371 kts | 148° |
| 2026-04-15 16:17 | 33.21215 | -65.36133 | 14034 ft | 364 kts | 148° |
| 2026-04-15 16:17 | 33.19076 | -65.34498 | 13460 ft | 358 kts | 148° |
| 2026-04-15 16:17 | 33.17025 | -65.32929 | 13008 ft | 350 kts | 148° |
| 2026-04-15 16:18 | 33.14990 | -65.31365 | 12570 ft | 344 kts | 148° |
| 2026-04-15 16:18 | 33.12993 | -65.29831 | 12140 ft | 338 kts | 148° |
| 2026-04-15 16:18 | 33.11041 | -65.28336 | 11924 ft | 326 kts | 148° |
| 2026-04-15 16:18 | 33.09171 | -65.26906 | 11925 ft | 313 kts | 148° |
| 2026-04-15 16:19 | 33.07373 | -65.25529 | 11920 ft | 302 kts | 148° |
| 2026-04-15 16:19 | 33.05600 | -65.24312 | 11799 ft | 295 kts | 156° |
| 2026-04-15 16:19 | 33.03693 | -65.23451 | 11521 ft | 291 kts | 165° |
| 2026-04-15 16:19 | 33.01744 | -65.22793 | 11153 ft | 290 kts | 165° |
| 2026-04-15 16:20 | 32.99817 | -65.22061 | 10795 ft | 291 kts | 162° |
| 2026-04-15 16:20 | 32.97918 | -65.21245 | 10448 ft | 290 kts | 161° |
| 2026-04-15 16:20 | 32.96017 | -65.20447 | 10098 ft | 289 kts | 163° |
| 2026-04-15 16:20 | 32.94109 | -65.19684 | 9724 ft | 288 kts | 163° |
| 2026-04-15 16:21 | 32.92228 | -65.18925 | 9422 ft | 282 kts | 163° |
| 2026-04-15 16:21 | 32.90390 | -65.18183 | 9152 ft | 276 kts | 163° |
| 2026-04-15 16:21 | 32.88593 | -65.17450 | 8946 ft | 270 kts | 162° |
| 2026-04-15 16:21 | 32.86827 | -65.16730 | 8718 ft | 265 kts | 163° |
| 2026-04-15 16:22 | 32.85087 | -65.16025 | 8510 ft | 265 kts | 163° |
| 2026-04-15 16:22 | 32.83357 | -65.15326 | 8317 ft | 267 kts | 162° |
| 2026-04-15 16:22 | 32.81595 | -65.14611 | 8162 ft | 268 kts | 163° |
| 2026-04-15 16:22 | 32.79832 | -65.13896 | 8019 ft | 268 kts | 162° |
| 2026-04-15 16:23 | 32.78070 | -65.13182 | 7879 ft | 267 kts | 163° |
| 2026-04-15 16:23 | 32.76311 | -65.12470 | 7757 ft | 267 kts | 162° |
| 2026-04-15 16:23 | 32.74557 | -65.11760 | 7642 ft | 266 kts | 162° |
| 2026-04-15 16:23 | 32.72808 | -65.11052 | 7515 ft | 265 kts | 162° |
| 2026-04-15 16:24 | 32.71058 | -65.10345 | 7394 ft | 264 kts | 162° |
| 2026-04-15 16:24 | 32.69315 | -65.09641 | 7271 ft | 264 kts | 162° |
| 2026-04-15 16:24 | 32.67580 | -65.08939 | 7156 ft | 263 kts | 162° |
| 2026-04-15 16:24 | 32.65848 | -65.08240 | 7039 ft | 263 kts | 162° |
| 2026-04-15 16:25 | 32.64123 | -65.07544 | 6921 ft | 261 kts | 162° |
| 2026-04-15 16:25 | 32.62406 | -65.06850 | 6802 ft | 260 kts | 162° |
| 2026-04-15 16:25 | 32.60700 | -65.06162 | 6659 ft | 260 kts | 162° |
| 2026-04-15 16:25 | 32.58982 | -65.05465 | 6484 ft | 261 kts | 162° |
| 2026-04-15 16:26 | 32.57263 | -65.04768 | 6315 ft | 261 kts | 162° |
| 2026-04-15 16:26 | 32.55537 | -65.04079 | 6144 ft | 262 kts | 162° |
| 2026-04-15 16:26 | 32.53806 | -65.03387 | 5967 ft | 262 kts | 162° |
| 2026-04-15 16:26 | 32.52094 | -65.02695 | 5802 ft | 257 kts | 162° |
| 2026-04-15 16:27 | 32.50411 | -65.02016 | 5612 ft | 252 kts | 162° |
| 2026-04-15 16:27 | 32.48765 | -65.01354 | 5431 ft | 248 kts | 162° |
| 2026-04-15 16:27 | 32.47687 | -65.00922 | 5302 ft | 246 kts | 162° |
| 2026-04-15 16:27 | 32.45546 | -65.00061 | 5067 ft | 240 kts | 162° |
| 2026-04-15 16:28 | 32.44506 | -64.99644 | 4939 ft | 237 kts | 162° |
| 2026-04-15 16:28 | 32.43006 | -64.98871 | 4673 ft | 235 kts | 146° |
| 2026-04-15 16:28 | 32.41855 | -64.97521 | 4440 ft | 234 kts | 125° |
| 2026-04-15 16:28 | 32.41171 | -64.95781 | 4129 ft | 234 kts | 107° |
| 2026-04-15 16:29 | 32.40827 | -64.93894 | 3773 ft | 235 kts | 100° |
| 2026-04-15 16:29 | 32.40562 | -64.91976 | 3397 ft | 237 kts | 101° |
| 2026-04-15 16:29 | 32.40247 | -64.90051 | 3021 ft | 239 kts | 101° |
| 2026-04-15 16:29 | 32.39917 | -64.88138 | 2647 ft | 235 kts | 101° |
| 2026-04-15 16:30 | 32.39595 | -64.86279 | 2239 ft | 233 kts | 101° |
| 2026-04-15 16:30 | 32.39268 | -64.84405 | 1824 ft | 231 kts | 101° |
| 2026-04-15 16:30 | 32.38958 | -64.82583 | 1701 ft | 218 kts | 100° |
| 2026-04-15 16:30 | 32.38660 | -64.80896 | 1669 ft | 199 kts | 101° |
| 2026-04-15 16:31 | 32.38395 | -64.79411 | 1590 ft | 170 kts | 100° |
| 2026-04-15 16:31 | 32.38180 | -64.78123 | 1371 ft | 153 kts | 100° |
| 2026-04-15 16:31 | 32.37979 | -64.76924 | 1181 ft | 144 kts | 99° |
| 2026-04-15 16:31 | 32.37787 | -64.75813 | 1047 ft | 133 kts | 101° |
| 2026-04-15 16:32 | 32.37585 | -64.74744 | 888 ft | 133 kts | 99° |
| 2026-04-15 16:32 | 32.37388 | -64.73681 | 721 ft | 134 kts | 103° |
| 2026-04-15 16:32 | 32.37170 | -64.72573 | 592 ft | 141 kts | 101° |
| 2026-04-15 16:32 | 32.36997 | -64.71467 | 509 ft | 132 kts | 96° |
| 2026-04-15 16:33 | 32.36836 | -64.70376 | 277 ft | 138 kts | 98° |
| 2026-04-15 16:33 | 32.36647 | -64.69268 | 110 ft | 136 kts | 99° |
| 2026-04-15 16:33 | 32.36470 | -64.68262 | 33 ft | 110 kts | 101° |
| 2026-04-15 16:33 | 32.36370 | -64.67650 | 28 ft | 48 kts | 101° |
| 2026-04-15 16:34 | 32.36308 | -64.67272 | 28 ft | 38 kts | 101° |
| 2026-04-15 16:34 | 32.36288 | -64.67110 | 31 ft | 13 kts | 78° |
| 2026-04-15 16:34 | 32.36319 | -64.67022 | 31 ft | 12 kts | 66° |
| 2026-04-15 16:34 | 32.36356 | -64.66958 | 31 ft | 5 kts | 358° |
| 2026-04-15 16:35 | 32.36385 | -64.66974 | 31 ft | 4 kts | 316° |
| 2026-04-15 16:35 | 32.36398 | -64.67015 | 31 ft | 7 kts | 283° |
| 2026-04-15 16:35 | 32.36409 | -64.67087 | 30 ft | 11 kts | 281° |
| 2026-04-15 16:35 | 32.36426 | -64.67189 | 30 ft | 14 kts | 281° |
| 2026-04-15 16:36 | 32.36447 | -64.67318 | 30 ft | 18 kts | 281° |
| 2026-04-15 16:36 | 32.36475 | -64.67470 | 30 ft | 20 kts | 284° |
| 2026-04-15 16:36 | 32.36508 | -64.67644 | 30 ft | 23 kts | 280° |
| 2026-04-15 16:36 | 32.36536 | -64.67824 | 30 ft | 21 kts | 281° |
| 2026-04-15 16:37 | 32.36567 | -64.68002 | 30 ft | 23 kts | 281° |
| 2026-04-15 16:37 | 32.36602 | -64.68201 | 30 ft | 26 kts | 282° |
| 2026-04-15 16:37 | 32.36640 | -64.68421 | 30 ft | 28 kts | 281° |
| 2026-04-15 16:37 | 32.36680 | -64.68653 | 30 ft | 30 kts | 282° |
| 2026-04-15 16:38 | 32.36708 | -64.68907 | 30 ft | 32 kts | 257° |
| 2026-04-15 16:38 | 32.36624 | -64.69159 | 29 ft | 34 kts | 247° |
| 2026-04-15 16:38 | 32.36539 | -64.69388 | 29 ft | 19 kts | 245° |
| 2026-04-15 16:38 | 32.36525 | -64.69431 | 29 ft | 0 kts | 250° |
| 2026-04-15 16:39 | 32.36521 | -64.69442 | 28 ft | 5 kts | 247° |
| 2026-04-15 16:39 | 32.36495 | -64.69510 | 29 ft | 13 kts | 246° |
| 2026-04-15 16:39 | 32.36469 | -64.69580 | 28 ft | 13 kts | 246° |
| 2026-04-15 16:39 | 32.36424 | -64.69706 | 28 ft | 21 kts | 247° |
| 2026-04-15 16:40 | 32.36359 | -64.69889 | 28 ft | 28 kts | 247° |
| 2026-04-15 16:40 | 32.36286 | -64.70095 | 28 ft | 24 kts | 247° |
| 2026-04-15 16:40 | 32.36255 | -64.70227 | 27 ft | 12 kts | 249° |
| 2026-04-15 16:40 | 32.36232 | -64.70292 | 27 ft | 5 kts | 248° |
| 2026-04-15 16:41 | 32.36231 | -64.70296 | 27 ft | 0 kts | 248° |